Airfield :
LOGIN :

Register | Disclaimer

   EN    FR    IT 

 










Legend :    VFR   Marginal VFR   IFR   Intensive IFR   Very Intensive IFR
Visi :
Ceiling :
>= 8 km
>= 3000ft
5 to 8 km
1000 to 3000 ft
1500m to 5 km
500 to 1000 ft
800 to 1500m
200 to 500 ft
< 800m
< 200 ft
Symbols :   Thunderstorms  Fog  Heavy snow  Heavy precipitations  Wind > 20 kt
SIGMETs :     Misc.  Thunderstorms  Icing  Turbulence  Mountain Waves  Volcanic Ashes







- Airport Elevation : 1302 ft
- IATA code : GNB
- Download approach charts


LFLS - Grenoble / St. Geoirs

CURRENT METAR :
  • 200800Z AUTO 09008KT CAVOK 01/M04 Q1012 NOSIG

EXPIRED METARs :
  • 200730Z AUTO 09007KT CAVOK 01/M03 Q1011 NOSIG
  • 200700Z AUTO 10008KT CAVOK 01/M03 Q1011 NOSIG
  • 200630Z AUTO 08008KT CAVOK 01/M03 Q1011 NOSIG
  • 200600Z AUTO 08008KT CAVOK 00/M03 Q1011 TEMPO 3000 BR
  • 200530Z AUTO 08009KT CAVOK 00/M03 Q1010 TEMPO 3000 BR

TAF TAF LFLS
Valid from the 20 at 03:00 until the 21 at 03:00 UTC


200200Z 2003/2103 VRB02KT CAVOK
PROB30
TEMPO 2003/2007 3000 BR
BECMG 2011/2013 BKN040
ATIS : +33 4 76 65 55 89
No reported NOTAMs for that airfield.



MET'MAP, your aeronautical weather chart ! - Copyright ORBIFLY December 2007 - Disclaimer

ORBIFLY MET'MAP TEAM :

Programming & Development : Alexandra Zaïnal
Concept & Development : Baudouin d'Aumeries
Co-Development & Prog : Marc-Olivier Méhu
Technical & hardware support : Manuel Goepfert

Contact : metmap@orbifly.com




SOURCES & CREDITS :

   NOAA